createdAt,value
2018-09-20T00:01:09.467Z,5.63
2018-09-20T00:03:37.771Z,6.80
2018-09-20T00:06:06.077Z,7.47
2018-09-20T00:08:34.420Z,5.33
2018-09-20T00:11:02.781Z,6.17
2018-09-20T00:13:31.132Z,5.97
2018-09-20T00:15:59.515Z,5.10
2018-09-20T00:18:27.907Z,5.60
2018-09-20T00:20:56.287Z,4.70
2018-09-20T00:23:24.671Z,4.63
2018-09-20T00:25:53.039Z,4.43
2018-09-20T00:28:21.523Z,5.47
2018-09-20T00:30:49.829Z,5.33
2018-09-20T00:33:18.195Z,5.20
2018-09-20T00:35:46.577Z,5.13
2018-09-20T00:38:14.937Z,4.43
2018-09-20T00:40:43.376Z,5.87
2018-09-20T00:43:11.689Z,5.17
2018-09-20T00:45:40.030Z,5.70
2018-09-20T00:48:09.207Z,4.73
2018-09-20T00:50:37.723Z,5.60
2018-09-20T00:53:06.472Z,3.93
2018-09-20T00:55:34.836Z,6.07
2018-09-20T00:58:03.168Z,5.10
2018-09-20T01:00:31.684Z,5.40
2018-09-20T01:03:00.208Z,5.47
2018-09-20T01:05:28.624Z,4.40
2018-09-20T01:07:56.946Z,4.27
2018-09-20T01:10:25.270Z,4.83
2018-09-20T01:12:53.580Z,4.93
2018-09-20T01:15:21.928Z,6.60
2018-09-20T01:17:50.296Z,5.90
2018-09-20T01:20:18.639Z,4.73
2018-09-20T01:22:47.051Z,4.80
2018-09-20T01:25:15.410Z,4.77
2018-09-20T01:27:43.770Z,5.43
2018-09-20T01:30:12.127Z,5.10
2018-09-20T01:32:40.451Z,5.93
2018-09-20T01:35:11.031Z,4.27
2018-09-20T01:37:39.374Z,4.93
2018-09-20T01:40:07.804Z,5.37
2018-09-20T01:42:36.149Z,5.77
2018-09-20T01:45:04.835Z,5.97
2018-09-20T01:47:33.800Z,4.47
2018-09-20T01:50:02.219Z,5.73
2018-09-20T01:52:30.556Z,5.60
2018-09-20T01:54:58.903Z,5.70
2018-09-20T01:57:27.244Z,5.50
2018-09-20T01:59:55.709Z,5.20
2018-09-20T02:02:24.071Z,6.80
2018-09-20T02:04:52.765Z,5.60
2018-09-20T02:07:21.111Z,6.33
2018-09-20T02:09:49.512Z,7.87
2018-09-20T02:12:17.994Z,7.37
2018-09-20T02:14:46.482Z,8.30
2018-09-20T02:17:14.810Z,9.40
2018-09-20T02:19:43.266Z,8.13
2018-09-20T02:22:11.654Z,8.63
2018-09-20T02:24:40.008Z,8.20
2018-09-20T02:27:08.474Z,8.30
2018-09-20T02:29:36.919Z,8.30
2018-09-20T02:32:05.234Z,8.10
2018-09-20T02:34:33.551Z,8.87
2018-09-20T02:37:01.892Z,9.13
2018-09-20T02:39:30.229Z,9.27
2018-09-20T02:41:58.558Z,8.00
2018-09-20T02:44:26.906Z,6.03
2018-09-20T02:46:55.252Z,6.83
2018-09-20T02:49:23.613Z,7.23
2018-09-20T02:51:51.928Z,8.20
2018-09-20T02:54:20.258Z,8.00
2018-09-20T02:56:48.591Z,7.87
2018-09-20T02:59:16.921Z,8.40
2018-09-20T03:01:45.284Z,6.43
2018-09-20T03:04:13.618Z,7.73
2018-09-20T03:06:41.967Z,7.23
2018-09-20T03:09:11.235Z,7.80
2018-09-20T03:11:39.550Z,8.17
2018-09-20T03:14:08.065Z,8.53
2018-09-20T03:16:36.497Z,9.00
2018-09-20T03:19:05.100Z,7.87
2018-09-20T03:21:33.478Z,7.67
2018-09-20T03:24:01.812Z,9.20
2018-09-20T03:26:30.263Z,6.27
2018-09-20T03:28:58.610Z,8.70
2018-09-20T03:31:26.945Z,6.43
2018-09-20T03:33:55.291Z,5.97
2018-09-20T03:36:23.615Z,7.30
2018-09-20T03:38:52.068Z,5.67
2018-09-20T03:41:20.382Z,5.40
2018-09-20T03:43:48.730Z,6.13
2018-09-20T03:46:17.060Z,6.67
2018-09-20T03:48:45.408Z,8.60
2018-09-20T03:51:13.763Z,8.33
2018-09-20T03:53:42.075Z,8.53
2018-09-20T03:56:10.428Z,7.30
2018-09-20T03:58:38.757Z,7.67
2018-09-20T04:01:07.160Z,6.93
2018-09-20T04:03:35.518Z,8.07
2018-09-20T04:06:04.434Z,8.93
2018-09-20T04:08:32.847Z,8.63
2018-09-20T04:11:01.127Z,7.90
2018-09-20T04:13:29.449Z,6.97
2018-09-20T04:15:57.795Z,6.03
2018-09-20T04:18:26.139Z,4.53
2018-09-20T04:21:01.193Z,4.70
2018-09-20T04:23:29.523Z,5.67
2018-09-20T04:25:57.879Z,5.93
2018-09-20T04:28:26.264Z,6.57
2018-09-20T04:30:54.573Z,6.10
2018-09-20T04:33:22.895Z,6.37
2018-09-20T04:35:51.243Z,7.23
2018-09-20T04:38:19.626Z,5.07
2018-09-20T04:40:48.059Z,5.77
2018-09-20T04:43:17.005Z,6.53
2018-09-20T04:45:45.988Z,5.50
2018-09-20T04:48:14.316Z,6.00
2018-09-20T04:51:15.757Z,5.13
2018-09-20T04:53:44.175Z,5.53
2018-09-20T04:56:12.519Z,4.90
2018-09-20T04:58:40.853Z,5.17
2018-09-20T05:01:09.662Z,4.30
2018-09-20T05:03:38.025Z,4.13
2018-09-20T05:06:06.384Z,3.77
2018-09-20T05:08:35.340Z,4.97
2018-09-20T05:11:03.711Z,5.23
2018-09-20T05:13:32.017Z,6.87
2018-09-20T05:16:07.087Z,5.63
2018-09-20T05:18:35.407Z,5.77
2018-09-20T05:21:04.473Z,5.30
2018-09-20T05:23:32.810Z,5.63
2018-09-20T05:26:01.145Z,4.73
2018-09-20T05:28:29.563Z,5.20
2018-09-20T05:30:57.899Z,4.47
2018-09-20T05:33:29.177Z,4.00
2018-09-20T05:35:57.532Z,4.90
2018-09-20T05:38:25.835Z,4.90
2018-09-20T05:40:54.349Z,4.73
2018-09-20T05:43:22.688Z,4.10
2018-09-20T05:45:51.345Z,3.57
2018-09-20T05:48:19.834Z,5.13
2018-09-20T05:50:49.343Z,4.13
2018-09-20T05:53:17.545Z,4.17
2018-09-20T05:55:46.883Z,4.70
2018-09-20T05:58:15.255Z,5.57
2018-09-20T06:00:44.301Z,4.00
2018-09-20T06:03:12.635Z,4.63
2018-09-20T06:05:40.976Z,5.47
2018-09-20T06:08:09.301Z,4.00
2018-09-20T06:10:37.661Z,4.80
2018-09-20T06:13:06.068Z,5.00
2018-09-20T06:15:34.409Z,4.30
2018-09-20T06:18:02.756Z,4.10
2018-09-20T06:20:31.086Z,4.33
2018-09-20T06:22:59.459Z,2.53
2018-09-20T06:25:27.847Z,3.07
2018-09-20T06:27:56.310Z,2.50
2018-09-20T06:30:24.668Z,2.40
2018-09-20T06:32:53.007Z,1.60
2018-09-20T06:35:22.347Z,1.73
2018-09-20T06:37:51.066Z,2.27
2018-09-20T06:40:19.857Z,2.80
2018-09-20T06:42:49.266Z,3.07
2018-09-20T06:45:17.577Z,3.13
2018-09-20T06:47:45.891Z,2.80
2018-09-20T06:50:14.291Z,3.27
2018-09-20T06:52:42.626Z,5.37
2018-09-20T06:55:10.980Z,5.67
2018-09-20T06:57:39.438Z,4.83
2018-09-20T07:00:08.269Z,5.50
2018-09-20T07:02:37.220Z,5.90
2018-09-20T07:05:06.187Z,4.70
2018-09-20T07:07:34.624Z,5.67
2018-09-20T07:10:03.033Z,5.30
2018-09-20T07:12:31.503Z,6.30
2018-09-20T07:14:59.893Z,5.87
2018-09-20T07:17:28.341Z,5.63
2018-09-20T07:19:57.039Z,6.83
2018-09-20T07:22:25.417Z,6.43
2018-09-20T07:24:54.449Z,7.53
2018-09-20T07:27:23.372Z,8.87
2018-09-20T07:29:51.706Z,10.03
2018-09-20T07:32:20.623Z,8.70
2018-09-20T07:34:49.104Z,8.07
2018-09-20T07:37:18.558Z,7.93
2018-09-20T07:39:47.008Z,9.17
2018-09-20T07:42:16.012Z,9.20
2018-09-20T07:44:44.340Z,8.93
2018-09-20T07:47:12.662Z,8.97
2018-09-20T07:49:40.996Z,10.13
2018-09-20T07:52:16.137Z,7.70
2018-09-20T07:54:44.450Z,8.97
2018-09-20T07:57:12.904Z,9.43
2018-09-20T07:59:41.256Z,9.80
2018-09-20T08:02:09.631Z,8.10
2018-09-20T08:04:37.998Z,7.97
2018-09-20T08:07:06.377Z,8.70
2018-09-20T08:09:34.711Z,8.27
2018-09-20T08:12:03.085Z,6.63
2018-09-20T08:14:31.425Z,7.43
2018-09-20T08:16:59.775Z,7.80
2018-09-20T08:19:28.231Z,7.13
2018-09-20T08:21:56.633Z,6.50
2018-09-20T08:24:24.992Z,6.77
2018-09-20T08:26:53.304Z,6.40
2018-09-20T08:29:21.663Z,6.53
2018-09-20T08:31:50.004Z,6.70
2018-09-20T08:34:18.882Z,6.27
2018-09-20T08:36:47.234Z,4.83
2018-09-20T08:39:15.552Z,6.00
2018-09-20T08:41:43.920Z,6.57
2018-09-20T08:44:12.272Z,5.93
2018-09-20T08:46:40.632Z,5.27
2018-09-20T08:49:09.013Z,5.10
2018-09-20T08:51:37.340Z,4.40
2018-09-20T08:54:05.969Z,5.27
2018-09-20T08:56:34.482Z,4.90
2018-09-20T08:59:03.004Z,5.13
2018-09-20T09:01:31.452Z,5.10
2018-09-20T09:03:59.889Z,4.23
2018-09-20T09:06:28.332Z,4.00
2018-09-20T09:08:57.003Z,4.47
2018-09-20T09:11:25.325Z,5.00
2018-09-20T09:13:53.656Z,5.27
2018-09-20T09:16:22.015Z,3.77
2018-09-20T09:18:50.381Z,4.90
2018-09-20T09:21:18.743Z,4.63
2018-09-20T09:23:47.087Z,4.60
2018-09-20T09:26:15.513Z,3.87
2018-09-20T09:28:43.901Z,3.80
2018-09-20T09:31:12.235Z,4.50
2018-09-20T09:33:40.569Z,3.30
2018-09-20T09:36:08.903Z,4.40
2018-09-20T09:38:37.253Z,3.90
2018-09-20T09:41:05.701Z,3.80
2018-09-20T09:43:34.067Z,3.57
2018-09-20T09:46:02.424Z,3.83
2018-09-20T09:48:30.755Z,3.47
2018-09-20T09:50:59.198Z,4.27
2018-09-20T09:53:27.651Z,4.33
2018-09-20T09:55:55.987Z,3.70
2018-09-20T09:58:24.380Z,5.07
2018-09-20T10:00:52.730Z,3.97
2018-09-20T10:03:21.096Z,3.93
2018-09-20T10:05:49.553Z,4.43
2018-09-20T10:08:17.889Z,4.20
2018-09-20T10:10:46.963Z,3.27
2018-09-20T10:13:15.333Z,4.57
2018-09-20T10:15:43.609Z,3.90
2018-09-20T10:18:11.935Z,3.77
2018-09-20T10:20:40.276Z,3.80
2018-09-20T10:23:08.643Z,4.40
2018-09-20T10:25:37.103Z,3.63
2018-09-20T10:28:05.480Z,4.40
2018-09-20T10:30:34.595Z,3.70
2018-09-20T10:33:03.609Z,4.03
2018-09-20T10:35:32.092Z,3.93
2018-09-20T10:38:00.392Z,3.93
2018-09-20T10:40:28.779Z,3.77
2018-09-20T10:42:57.187Z,3.63
2018-09-20T10:45:25.575Z,3.80
2018-09-20T10:47:53.974Z,4.60
2018-09-20T10:50:22.289Z,3.93
2018-09-20T10:52:51.321Z,3.30
2018-09-20T10:55:19.634Z,4.67
2018-09-20T10:57:47.992Z,3.77
2018-09-20T11:00:17.062Z,3.93
2018-09-20T11:02:45.418Z,3.13
2018-09-20T11:05:13.779Z,3.70
2018-09-20T11:07:42.129Z,4.40
2018-09-20T11:10:10.476Z,3.60
2018-09-20T11:12:38.859Z,3.80
2018-09-20T11:15:07.284Z,3.23
2018-09-20T11:17:35.682Z,4.17
2018-09-20T11:20:04.603Z,3.83
2018-09-20T11:22:33.055Z,3.53
2018-09-20T11:25:01.445Z,3.70
2018-09-20T11:27:29.787Z,3.90
2018-09-20T11:29:58.124Z,4.23
2018-09-20T11:32:26.541Z,4.63
2018-09-20T11:34:54.928Z,4.07
2018-09-20T11:37:24.104Z,3.87
2018-09-20T11:39:52.460Z,3.90
2018-09-20T11:42:20.854Z,4.73
2018-09-20T11:44:49.262Z,4.43
2018-09-20T11:47:17.690Z,3.80
2018-09-20T11:49:46.034Z,3.43
2018-09-20T11:52:14.386Z,3.53
2018-09-20T11:54:43.227Z,4.47
2018-09-20T11:57:11.595Z,3.57
2018-09-20T11:59:39.937Z,3.83
2018-09-20T12:02:14.865Z,3.90
2018-09-20T12:04:43.282Z,4.07
2018-09-20T12:07:11.651Z,4.03
2018-09-20T12:09:39.995Z,3.80
2018-09-20T12:12:08.316Z,4.07
2018-09-20T12:14:36.707Z,4.33
2018-09-20T12:17:05.094Z,3.53
2018-09-20T12:19:33.530Z,4.00
2018-09-20T12:22:01.973Z,4.27
2018-09-20T12:24:30.336Z,3.50
2018-09-20T12:26:59.433Z,3.60
2018-09-20T12:29:27.755Z,4.53
2018-09-20T12:31:56.213Z,4.17
2018-09-20T12:34:24.533Z,4.27
2018-09-20T12:36:52.892Z,3.50
2018-09-20T12:39:21.279Z,3.30
2018-09-20T12:41:49.621Z,4.03
2018-09-20T12:44:17.996Z,3.30
2018-09-20T12:46:46.345Z,3.67
2018-09-20T12:49:14.715Z,4.27
2018-09-20T12:51:43.061Z,4.33
2018-09-20T12:54:11.854Z,3.97
2018-09-20T12:56:41.072Z,3.03
2018-09-20T12:59:09.468Z,3.40
2018-09-20T13:01:37.802Z,3.90
2018-09-20T13:04:06.173Z,3.73
2018-09-20T13:06:34.598Z,4.03
2018-09-20T13:09:02.987Z,4.47
2018-09-20T13:11:31.337Z,4.63
2018-09-20T13:13:59.687Z,4.17
2018-09-20T13:16:28.068Z,3.43
2018-09-20T13:18:56.460Z,3.00
2018-09-20T13:21:24.830Z,3.37
2018-09-20T13:23:59.743Z,3.67
2018-09-20T13:26:28.115Z,4.40
2018-09-20T13:28:56.507Z,4.40
2018-09-20T13:31:24.856Z,3.47
2018-09-20T13:33:53.227Z,3.90
2018-09-20T13:36:21.602Z,3.10
2018-09-20T13:38:50.075Z,3.83
2018-09-20T13:41:18.512Z,3.90
2018-09-20T13:43:46.931Z,4.10
2018-09-20T13:46:15.949Z,3.37
2018-09-20T13:48:44.275Z,4.23
2018-09-20T13:51:12.624Z,3.40
2018-09-20T13:53:40.959Z,3.97
2018-09-20T13:56:09.308Z,4.83
2018-09-20T13:58:38.213Z,3.67
2018-09-20T14:01:06.669Z,4.47
2018-09-20T14:03:35.109Z,3.40
2018-09-20T14:06:03.454Z,3.80
2018-09-20T14:08:32.522Z,3.80
2018-09-20T14:11:00.908Z,4.03
2018-09-20T14:13:29.316Z,2.87
2018-09-20T14:16:04.168Z,3.87
2018-09-20T14:18:32.619Z,3.83
2018-09-20T14:21:01.035Z,4.83
2018-09-20T14:23:29.458Z,4.13
2018-09-20T14:25:57.840Z,3.30
2018-09-20T14:28:26.944Z,4.13
2018-09-20T14:30:55.464Z,3.87
2018-09-20T14:33:23.800Z,3.87
2018-09-20T14:35:52.270Z,3.37
2018-09-20T14:38:20.601Z,3.77
2018-09-20T14:40:48.951Z,6.67
2018-09-20T14:43:17.304Z,3.73
2018-09-20T14:45:46.623Z,3.90
2018-09-20T14:48:14.977Z,3.97
2018-09-20T14:50:43.365Z,4.43
2018-09-20T14:53:11.720Z,3.60
2018-09-20T14:55:40.171Z,3.47
2018-09-20T14:58:08.540Z,2.73
2018-09-20T15:00:43.516Z,4.20
2018-09-20T15:03:11.828Z,3.63
2018-09-20T15:05:40.179Z,3.40
2018-09-20T15:08:08.669Z,3.33
2018-09-20T15:10:36.972Z,3.20
2018-09-20T15:13:05.498Z,3.13
2018-09-20T15:15:34.361Z,3.23
2018-09-20T15:18:02.775Z,4.00
2018-09-20T15:20:31.153Z,3.30
2018-09-20T15:22:59.488Z,3.60
2018-09-20T15:25:29.240Z,3.43
2018-09-20T15:27:57.604Z,3.03
2018-09-20T15:30:25.966Z,3.10
2018-09-20T15:32:54.308Z,3.73
2018-09-20T15:35:29.174Z,3.37
2018-09-20T15:37:57.527Z,3.60
2018-09-20T15:40:25.872Z,2.90
2018-09-20T15:42:54.357Z,3.63
2018-09-20T15:45:27.728Z,3.60
2018-09-20T15:47:56.094Z,3.37
2018-09-20T15:50:24.482Z,3.60
2018-09-20T15:52:52.831Z,3.77
2018-09-20T15:55:21.220Z,2.97
2018-09-20T15:57:49.596Z,3.03
2018-09-20T16:00:18.015Z,3.47
2018-09-20T16:02:46.424Z,3.13
2018-09-20T16:05:14.784Z,3.10
2018-09-20T16:07:43.212Z,3.30
2018-09-20T16:10:11.673Z,3.90
2018-09-20T16:12:40.057Z,2.97
2018-09-20T16:15:08.449Z,3.80
2018-09-20T16:17:36.796Z,2.70
2018-09-20T16:20:05.696Z,2.97
2018-09-20T16:22:34.062Z,3.17
2018-09-20T16:25:02.447Z,3.23
2018-09-20T16:27:30.853Z,4.00
2018-09-20T16:30:55.727Z,3.93
2018-09-20T16:33:53.107Z,3.77
2018-09-20T16:36:32.201Z,3.30
2018-09-20T16:39:14.853Z,2.77
2018-09-20T16:41:48.264Z,3.70
2018-09-20T16:44:16.653Z,4.10
2018-09-20T16:46:45.052Z,3.57
2018-09-20T16:49:13.433Z,3.00
2018-09-20T16:51:41.935Z,2.93
2018-09-20T16:54:10.333Z,3.40
2018-09-20T16:56:38.684Z,2.80
2018-09-20T16:59:07.027Z,3.40
2018-09-20T17:01:42.224Z,3.73
2018-09-20T17:04:10.682Z,2.80
2018-09-20T17:06:39.066Z,2.13
2018-09-20T17:09:08.447Z,2.07
2018-09-20T17:11:36.799Z,2.33
2018-09-20T17:14:05.959Z,2.37
2018-09-20T17:16:34.368Z,1.90
2018-09-20T17:19:02.729Z,2.57
2018-09-20T17:21:31.109Z,4.67
2018-09-20T17:23:59.486Z,2.80
2018-09-20T17:26:27.848Z,2.73
2018-09-20T17:28:56.206Z,3.30
2018-09-20T17:31:24.627Z,2.80
2018-09-20T17:33:52.995Z,3.17
2018-09-20T17:36:21.837Z,2.27
2018-09-20T17:38:51.517Z,3.00
2018-09-20T17:41:23.810Z,3.33
2018-09-20T17:43:55.063Z,3.40
2018-09-20T17:46:23.457Z,2.83
2018-09-20T17:48:51.814Z,2.70
2018-09-20T17:51:21.063Z,3.00
2018-09-20T17:53:49.891Z,3.33
2018-09-20T17:56:18.728Z,2.87
2018-09-20T17:58:47.782Z,2.67
2018-09-20T18:01:16.271Z,2.43
2018-09-20T18:03:44.667Z,3.37
2018-09-20T18:06:13.017Z,3.20
2018-09-20T18:08:41.360Z,3.80
2018-09-20T18:11:09.711Z,3.77
2018-09-20T18:13:38.065Z,3.83
2018-09-20T18:16:06.392Z,2.73
2018-09-20T18:18:34.790Z,2.30
2018-09-20T18:21:04.123Z,2.87
2018-09-20T18:23:32.577Z,3.63
2018-09-20T18:26:01.018Z,3.00
2018-09-20T18:28:29.353Z,2.80
2018-09-20T18:30:57.708Z,2.93
2018-09-20T18:33:26.062Z,3.27
2018-09-20T18:35:54.409Z,2.73
2018-09-20T18:38:22.856Z,3.37
2018-09-20T18:40:51.208Z,3.10
2018-09-20T18:43:19.594Z,4.00
2018-09-20T18:45:47.920Z,3.23
2018-09-20T18:48:16.282Z,2.60
2018-09-20T18:50:44.622Z,3.00
2018-09-20T18:53:13.042Z,3.00
2018-09-20T18:55:41.400Z,2.50
2018-09-20T18:58:09.816Z,3.27
2018-09-20T19:00:38.136Z,3.33
2018-09-20T19:03:06.576Z,4.17
2018-09-20T19:05:34.896Z,3.20
2018-09-20T19:08:03.420Z,4.07
2018-09-20T19:10:31.814Z,3.37
2018-09-20T19:13:00.188Z,3.20
2018-09-20T19:15:28.606Z,2.77
2018-09-20T19:17:57.135Z,3.13
2018-09-20T19:20:33.951Z,3.80
2018-09-20T19:23:02.359Z,3.10
2018-09-20T19:25:30.772Z,3.10
2018-09-20T19:27:59.120Z,3.20
2018-09-20T19:30:27.500Z,2.73
2018-09-20T19:32:55.958Z,2.87
2018-09-20T19:35:24.392Z,2.90
2018-09-20T19:37:52.716Z,3.87
2018-09-20T19:40:21.080Z,3.33
2018-09-20T19:42:49.426Z,3.63
2018-09-20T19:45:17.926Z,4.00
2018-09-20T19:47:46.914Z,3.03
2018-09-20T19:50:15.279Z,2.97
2018-09-20T19:52:43.613Z,2.90
2018-09-20T19:55:11.973Z,3.23
2018-09-20T19:57:40.416Z,3.20
2018-09-20T20:00:09.517Z,3.50
2018-09-20T20:02:37.944Z,3.87
2018-09-20T20:05:06.392Z,3.73
2018-09-20T20:07:34.743Z,2.90
2018-09-20T20:10:03.168Z,4.10
2018-09-20T20:12:31.518Z,3.17
2018-09-20T20:14:59.895Z,4.10
2018-09-20T20:17:28.327Z,3.57
2018-09-20T20:19:56.766Z,3.37
2018-09-20T20:22:25.156Z,4.13
2018-09-20T20:24:53.581Z,3.03
2018-09-20T20:27:21.992Z,2.93
2018-09-20T20:29:50.295Z,2.70
2018-09-20T20:32:18.756Z,3.37
2018-09-20T20:34:53.963Z,3.63
2018-09-20T20:37:22.450Z,3.47
2018-09-20T20:39:50.812Z,3.23
2018-09-20T20:42:19.140Z,4.17
2018-09-20T20:44:47.492Z,3.93
2018-09-20T20:47:15.791Z,3.40
2018-09-20T20:49:44.153Z,4.80
2018-09-20T20:52:12.497Z,3.10
2018-09-20T20:54:40.897Z,3.30
2018-09-20T20:57:09.252Z,3.17
2018-09-20T20:59:37.592Z,4.00
2018-09-20T21:02:05.924Z,4.47
2018-09-20T21:04:40.909Z,5.27
2018-09-20T21:07:09.284Z,5.10
2018-09-20T21:09:37.756Z,4.00
2018-09-20T21:12:06.086Z,3.27
2018-09-20T21:14:34.894Z,5.03
2018-09-20T21:17:03.216Z,3.97
2018-09-20T21:19:31.568Z,4.67
2018-09-20T21:22:00.453Z,4.40
2018-09-20T21:24:28.791Z,4.37
2018-09-20T21:26:57.143Z,3.97
2018-09-20T21:29:25.515Z,3.03
2018-09-20T21:31:53.898Z,4.27
2018-09-20T21:34:22.237Z,3.50
2018-09-20T21:36:50.656Z,3.13
2018-09-20T21:39:18.973Z,6.07
2018-09-20T21:41:47.311Z,5.03
2018-09-20T21:44:15.671Z,5.03
2018-09-20T21:46:44.028Z,5.40
2018-09-20T21:49:12.392Z,5.20
2018-09-20T21:51:40.767Z,4.93
2018-09-20T21:54:09.139Z,3.13
2018-09-20T21:56:37.485Z,4.30
2018-09-20T21:59:05.853Z,3.90
2018-09-20T22:01:39.467Z,4.53
2018-09-20T22:04:07.878Z,5.80
2018-09-20T22:06:36.501Z,4.87
2018-09-20T22:09:08.095Z,5.80
2018-09-20T22:11:36.577Z,4.63
2018-09-20T22:14:04.929Z,3.67
2018-09-20T22:16:33.487Z,5.47
2018-09-20T22:19:01.855Z,5.03
2018-09-20T22:21:30.199Z,4.07
2018-09-20T22:23:58.621Z,4.27
2018-09-20T22:26:27.068Z,4.57
2018-09-20T22:28:55.402Z,5.17
2018-09-20T22:31:23.755Z,4.43
2018-09-20T22:33:52.348Z,4.47
2018-09-20T22:36:20.716Z,4.37
2018-09-20T22:38:49.030Z,3.53
2018-09-20T22:41:17.486Z,4.30
2018-09-20T22:43:45.795Z,4.03
2018-09-20T22:46:14.192Z,3.90
2018-09-20T22:48:42.890Z,4.40
2018-09-20T22:51:11.256Z,6.07
2018-09-20T22:53:39.735Z,4.70
2018-09-20T22:56:08.131Z,3.60
2018-09-20T22:58:36.540Z,3.90
2018-09-20T23:01:04.886Z,3.80
2018-09-20T23:03:33.219Z,4.07
2018-09-20T23:06:01.542Z,5.23
2018-09-20T23:08:29.886Z,4.10
2018-09-20T23:10:58.212Z,5.23
2018-09-20T23:13:26.580Z,3.60
2018-09-20T23:15:55.407Z,3.13
2018-09-20T23:18:23.766Z,3.40
2018-09-20T23:20:52.084Z,4.20
2018-09-20T23:23:20.402Z,3.73
2018-09-20T23:25:48.748Z,3.27
2018-09-20T23:28:17.091Z,4.20
2018-09-20T23:30:45.465Z,3.43
2018-09-20T23:33:13.804Z,3.53
2018-09-20T23:35:42.172Z,3.10
2018-09-20T23:38:10.663Z,3.80
2018-09-20T23:40:38.998Z,3.00
2018-09-20T23:43:07.380Z,3.67
2018-09-20T23:45:35.696Z,5.00
2018-09-20T23:48:04.052Z,5.03
2018-09-20T23:50:32.398Z,4.93
2018-09-20T23:53:00.888Z,4.80
2018-09-20T23:55:29.256Z,4.40
2018-09-20T23:57:57.564Z,4.67
